Terminal Aerodrome Forecast
Issued by NWS

Home | Current Version | Previous Version | Text Only | Print | Product List | Glossary On
Versions: 1 2 3 4 5 6 7 8 9 10 11 12 13 14 15 16 17 18 19 20
000
FTUS43 KSGF 311700
TAFJLN
TAF
KJLN 311720Z 3118/0118 21008KT P6SM SKC
     FM010100 17012KT P6SM SKC
     FM010500 16012G22KT P6SM SCT080 BKN200 WS020/19045KT
     FM011200 20015G25KT P6SM BKN200=

USA.gov is the U.S. government's official web portal to all federal, state and local government web resources and services.